sensor_id;sensor_type;location;lat;lon;timestamp;P1;durP1;ratioP1;P2;durP2;ratioP2
69906;SDS011;57190;47.918;8.112;2022-07-24T00:00:14;6.55;;;6.15;;
69906;SDS011;57190;47.918;8.112;2022-07-24T00:02:41;6.32;;;5.85;;
69906;SDS011;57190;47.918;8.112;2022-07-24T00:05:07;6.50;;;6.10;;
69906;SDS011;57190;47.918;8.112;2022-07-24T00:07:33;6.60;;;6.10;;
69906;SDS011;57190;47.918;8.112;2022-07-24T00:10:03;6.93;;;6.43;;
69906;SDS011;57190;47.918;8.112;2022-07-24T00:12:29;7.10;;;6.60;;
69906;SDS011;57190;47.918;8.112;2022-07-24T00:14:55;6.43;;;5.93;;
69906;SDS011;57190;47.918;8.112;2022-07-24T00:17:21;6.88;;;6.30;;
69906;SDS011;57190;47.918;8.112;2022-07-24T00:19:47;6.50;;;6.00;;
69906;SDS011;57190;47.918;8.112;2022-07-24T00:22:12;6.32;;;5.88;;
69906;SDS011;57190;47.918;8.112;2022-07-24T00:24:38;6.07;;;5.63;;
69906;SDS011;57190;47.918;8.112;2022-07-24T00:27:03;6.38;;;5.90;;
69906;SDS011;57190;47.918;8.112;2022-07-24T00:29:29;6.40;;;5.90;;
69906;SDS011;57190;47.918;8.112;2022-07-24T00:31:55;6.35;;;5.93;;
69906;SDS011;57190;47.918;8.112;2022-07-24T00:34:20;6.25;;;5.85;;
69906;SDS011;57190;47.918;8.112;2022-07-24T00:36:46;7.13;;;6.63;;
69906;SDS011;57190;47.918;8.112;2022-07-24T00:39:12;6.70;;;6.20;;
69906;SDS011;57190;47.918;8.112;2022-07-24T00:41:37;7.13;;;6.60;;
69906;SDS011;57190;47.918;8.112;2022-07-24T00:44:05;7.30;;;6.75;;
69906;SDS011;57190;47.918;8.112;2022-07-24T00:46:36;6.40;;;5.85;;
69906;SDS011;57190;47.918;8.112;2022-07-24T00:49:04;6.82;;;6.43;;
69906;SDS011;57190;47.918;8.112;2022-07-24T00:51:32;6.13;;;5.72;;
69906;SDS011;57190;47.918;8.112;2022-07-24T00:53:58;7.28;;;6.80;;
69906;SDS011;57190;47.918;8.112;2022-07-24T00:56:24;6.93;;;6.50;;
69906;SDS011;57190;47.918;8.112;2022-07-24T00:58:50;6.07;;;5.78;;
69906;SDS011;57190;47.918;8.112;2022-07-24T01:01:16;6.32;;;5.93;;
69906;SDS011;57190;47.918;8.112;2022-07-24T01:03:43;7.25;;;6.60;;
69906;SDS011;57190;47.918;8.112;2022-07-24T01:06:09;6.72;;;6.13;;
69906;SDS011;57190;47.918;8.112;2022-07-24T01:08:35;6.20;;;5.80;;
69906;SDS011;57190;47.918;8.112;2022-07-24T01:11:02;6.63;;;6.22;;
69906;SDS011;57190;47.918;8.112;2022-07-24T01:13:29;6.47;;;5.88;;
69906;SDS011;57190;47.918;8.112;2022-07-24T01:15:55;6.22;;;5.82;;
69906;SDS011;57190;47.918;8.112;2022-07-24T01:18:21;7.03;;;6.53;;
69906;SDS011;57190;47.918;8.112;2022-07-24T01:20:47;6.30;;;5.80;;
69906;SDS011;57190;47.918;8.112;2022-07-24T01:23:13;6.28;;;5.88;;
69906;SDS011;57190;47.918;8.112;2022-07-24T01:25:39;6.40;;;5.85;;
69906;SDS011;57190;47.918;8.112;2022-07-24T01:28:06;6.13;;;5.63;;
69906;SDS011;57190;47.918;8.112;2022-07-24T01:30:32;6.85;;;6.35;;
69906;SDS011;57190;47.918;8.112;2022-07-24T01:32:57;7.05;;;6.50;;
69906;SDS011;57190;47.918;8.112;2022-07-24T01:35:23;6.47;;;6.00;;
69906;SDS011;57190;47.918;8.112;2022-07-24T01:37:50;7.03;;;6.53;;
69906;SDS011;57190;47.918;8.112;2022-07-24T01:40:17;6.18;;;5.68;;
69906;SDS011;57190;47.918;8.112;2022-07-24T01:42:42;6.63;;;6.13;;
69906;SDS011;57190;47.918;8.112;2022-07-24T01:45:08;7.55;;;6.97;;
69906;SDS011;57190;47.918;8.112;2022-07-24T01:47:34;6.63;;;6.18;;
69906;SDS011;57190;47.918;8.112;2022-07-24T01:49:59;7.13;;;6.63;;
69906;SDS011;57190;47.918;8.112;2022-07-24T01:52:25;6.28;;;5.78;;
69906;SDS011;57190;47.918;8.112;2022-07-24T01:54:51;7.28;;;6.68;;
69906;SDS011;57190;47.918;8.112;2022-07-24T01:57:17;7.15;;;6.50;;
69906;SDS011;57190;47.918;8.112;2022-07-24T01:59:43;6.35;;;5.85;;
69906;SDS011;57190;47.918;8.112;2022-07-24T02:02:08;6.78;;;6.18;;
69906;SDS011;57190;47.918;8.112;2022-07-24T02:04:34;6.13;;;5.72;;
69906;SDS011;57190;47.918;8.112;2022-07-24T02:06:59;6.25;;;5.85;;
69906;SDS011;57190;47.918;8.112;2022-07-24T02:09:25;6.03;;;5.63;;
69906;SDS011;57190;47.918;8.112;2022-07-24T02:11:51;7.10;;;6.55;;
69906;SDS011;57190;47.918;8.112;2022-07-24T02:14:16;6.25;;;5.80;;
69906;SDS011;57190;47.918;8.112;2022-07-24T02:16:42;7.68;;;7.07;;
69906;SDS011;57190;47.918;8.112;2022-07-24T02:19:08;6.93;;;6.47;;
69906;SDS011;57190;47.918;8.112;2022-07-24T02:21:34;6.00;;;5.60;;
69906;SDS011;57190;47.918;8.112;2022-07-24T02:23:59;6.80;;;6.30;;
69906;SDS011;57190;47.918;8.112;2022-07-24T02:26:25;6.88;;;6.28;;
69906;SDS011;57190;47.918;8.112;2022-07-24T02:28:50;6.72;;;6.25;;
69906;SDS011;57190;47.918;8.112;2022-07-24T02:31:16;7.03;;;6.43;;
69906;SDS011;57190;47.918;8.112;2022-07-24T02:33:41;7.07;;;6.50;;
69906;SDS011;57190;47.918;8.112;2022-07-24T02:36:07;5.80;;;5.40;;
69906;SDS011;57190;47.918;8.112;2022-07-24T02:38:33;6.13;;;5.72;;
69906;SDS011;57190;47.918;8.112;2022-07-24T02:40:58;6.72;;;6.20;;
69906;SDS011;57190;47.918;8.112;2022-07-24T02:43:24;7.00;;;6.57;;
69906;SDS011;57190;47.918;8.112;2022-07-24T02:45:49;7.88;;;7.28;;
69906;SDS011;57190;47.918;8.112;2022-07-24T02:48:15;7.97;;;7.32;;
69906;SDS011;57190;47.918;8.112;2022-07-24T02:50:40;8.07;;;7.38;;
69906;SDS011;57190;47.918;8.112;2022-07-24T02:53:06;8.15;;;7.55;;
69906;SDS011;57190;47.918;8.112;2022-07-24T02:55:32;7.57;;;7.07;;
69906;SDS011;57190;47.918;8.112;2022-07-24T02:57:57;7.82;;;7.32;;
69906;SDS011;57190;47.918;8.112;2022-07-24T03:00:23;7.78;;;7.15;;
69906;SDS011;57190;47.918;8.112;2022-07-24T03:02:49;7.07;;;6.63;;
69906;SDS011;57190;47.918;8.112;2022-07-24T03:05:14;7.38;;;6.88;;
69906;SDS011;57190;47.918;8.112;2022-07-24T03:07:40;7.05;;;6.65;;
69906;SDS011;57190;47.918;8.112;2022-07-24T03:10:07;6.82;;;6.22;;
69906;SDS011;57190;47.918;8.112;2022-07-24T03:12:34;6.80;;;6.40;;
69906;SDS011;57190;47.918;8.112;2022-07-24T03:15:00;7.07;;;6.57;;
69906;SDS011;57190;47.918;8.112;2022-07-24T03:17:26;7.13;;;6.63;;
69906;SDS011;57190;47.918;8.112;2022-07-24T03:19:51;7.38;;;6.78;;
69906;SDS011;57190;47.918;8.112;2022-07-24T03:22:17;6.95;;;6.45;;
69906;SDS011;57190;47.918;8.112;2022-07-24T03:24:43;7.00;;;6.50;;
69906;SDS011;57190;47.918;8.112;2022-07-24T03:27:08;6.82;;;6.32;;
69906;SDS011;57190;47.918;8.112;2022-07-24T03:29:34;6.47;;;5.97;;
69906;SDS011;57190;47.918;8.112;2022-07-24T03:32:00;6.78;;;6.28;;
69906;SDS011;57190;47.918;8.112;2022-07-24T03:34:26;6.30;;;5.85;;
69906;SDS011;57190;47.918;8.112;2022-07-24T03:36:51;6.32;;;5.93;;
69906;SDS011;57190;47.918;8.112;2022-07-24T03:39:17;6.95;;;6.45;;
69906;SDS011;57190;47.918;8.112;2022-07-24T03:41:43;6.93;;;6.43;;
69906;SDS011;57190;47.918;8.112;2022-07-24T03:44:08;6.65;;;6.22;;
69906;SDS011;57190;47.918;8.112;2022-07-24T03:46:34;6.63;;;6.13;;
69906;SDS011;57190;47.918;8.112;2022-07-24T03:48:59;6.70;;;6.20;;
69906;SDS011;57190;47.918;8.112;2022-07-24T03:51:25;6.82;;;6.43;;
69906;SDS011;57190;47.918;8.112;2022-07-24T03:53:51;7.03;;;6.57;;
69906;SDS011;57190;47.918;8.112;2022-07-24T03:56:17;6.32;;;5.93;;
69906;SDS011;57190;47.918;8.112;2022-07-24T03:58:42;6.50;;;6.00;;
69906;SDS011;57190;47.918;8.112;2022-07-24T04:01:08;6.95;;;6.40;;
69906;SDS011;57190;47.918;8.112;2022-07-24T04:03:34;6.45;;;5.95;;
69906;SDS011;57190;47.918;8.112;2022-07-24T04:06:00;6.55;;;6.03;;
69906;SDS011;57190;47.918;8.112;2022-07-24T04:08:26;7.55;;;7.05;;
69906;SDS011;57190;47.918;8.112;2022-07-24T04:10:52;6.18;;;5.78;;
69906;SDS011;57190;47.918;8.112;2022-07-24T04:13:23;6.53;;;6.10;;
69906;SDS011;57190;47.918;8.112;2022-07-24T04:15:49;7.60;;;7.00;;
69906;SDS011;57190;47.918;8.112;2022-07-24T04:18:14;6.43;;;5.85;;
69906;SDS011;57190;47.918;8.112;2022-07-24T04:20:40;6.80;;;6.20;;
69906;SDS011;57190;47.918;8.112;2022-07-24T04:23:06;6.60;;;6.10;;
69906;SDS011;57190;47.918;8.112;2022-07-24T04:25:31;6.68;;;6.18;;
69906;SDS011;57190;47.918;8.112;2022-07-24T04:27:59;6.55;;;6.05;;
69906;SDS011;57190;47.918;8.112;2022-07-24T04:30:25;6.65;;;6.05;;
69906;SDS011;57190;47.918;8.112;2022-07-24T04:32:51;5.78;;;5.38;;
69906;SDS011;57190;47.918;8.112;2022-07-24T04:35:17;5.78;;;5.38;;
69906;SDS011;57190;47.918;8.112;2022-07-24T04:37:42;6.20;;;5.80;;
69906;SDS011;57190;47.918;8.112;2022-07-24T04:40:08;6.68;;;6.15;;
69906;SDS011;57190;47.918;8.112;2022-07-24T04:42:34;6.00;;;5.50;;
69906;SDS011;57190;47.918;8.112;2022-07-24T04:45:00;6.30;;;5.90;;
69906;SDS011;57190;47.918;8.112;2022-07-24T04:47:25;6.20;;;5.72;;
69906;SDS011;57190;47.918;8.112;2022-07-24T04:49:51;6.78;;;6.28;;
69906;SDS011;57190;47.918;8.112;2022-07-24T04:52:16;6.50;;;6.10;;
69906;SDS011;57190;47.918;8.112;2022-07-24T04:54:42;6.85;;;6.30;;
69906;SDS011;57190;47.918;8.112;2022-07-24T04:57:08;6.38;;;5.88;;
69906;SDS011;57190;47.918;8.112;2022-07-24T04:59:33;6.55;;;6.15;;
69906;SDS011;57190;47.918;8.112;2022-07-24T05:01:59;7.80;;;6.55;;
69906;SDS011;57190;47.918;8.112;2022-07-24T05:04:24;6.38;;;5.88;;
69906;SDS011;57190;47.918;8.112;2022-07-24T05:06:50;6.57;;;6.10;;
69906;SDS011;57190;47.918;8.112;2022-07-24T05:09:15;6.38;;;5.97;;
69906;SDS011;57190;47.918;8.112;2022-07-24T05:11:41;7.05;;;6.55;;
69906;SDS011;57190;47.918;8.112;2022-07-24T05:14:06;6.20;;;5.78;;
69906;SDS011;57190;47.918;8.112;2022-07-24T05:16:32;6.05;;;5.65;;
69906;SDS011;57190;47.918;8.112;2022-07-24T05:18:58;5.90;;;5.50;;
69906;SDS011;57190;47.918;8.112;2022-07-24T05:21:23;6.05;;;5.68;;
69906;SDS011;57190;47.918;8.112;2022-07-24T05:23:49;6.05;;;5.68;;
69906;SDS011;57190;47.918;8.112;2022-07-24T05:26:14;6.47;;;5.88;;
69906;SDS011;57190;47.918;8.112;2022-07-24T05:28:40;6.63;;;6.15;;
69906;SDS011;57190;47.918;8.112;2022-07-24T05:31:06;7.38;;;6.80;;
69906;SDS011;57190;47.918;8.112;2022-07-24T05:33:33;6.68;;;6.18;;
69906;SDS011;57190;47.918;8.112;2022-07-24T05:35:59;7.22;;;6.55;;
69906;SDS011;57190;47.918;8.112;2022-07-24T05:38:25;6.55;;;6.15;;
69906;SDS011;57190;47.918;8.112;2022-07-24T05:40:50;6.63;;;6.13;;
69906;SDS011;57190;47.918;8.112;2022-07-24T05:43:16;6.65;;;6.15;;
69906;SDS011;57190;47.918;8.112;2022-07-24T05:45:42;6.40;;;5.85;;
69906;SDS011;57190;47.918;8.112;2022-07-24T05:48:08;6.60;;;6.10;;
69906;SDS011;57190;47.918;8.112;2022-07-24T05:50:33;6.60;;;6.10;;
69906;SDS011;57190;47.918;8.112;2022-07-24T05:52:59;7.20;;;6.45;;
69906;SDS011;57190;47.918;8.112;2022-07-24T05:55:24;6.50;;;6.10;;
69906;SDS011;57190;47.918;8.112;2022-07-24T05:57:50;7.00;;;6.60;;
69906;SDS011;57190;47.918;8.112;2022-07-24T06:00:16;5.30;;;5.00;;
69906;SDS011;57190;47.918;8.112;2022-07-24T06:02:45;6.72;;;6.22;;
69906;SDS011;57190;47.918;8.112;2022-07-24T06:05:13;6.90;;;6.50;;
69906;SDS011;57190;47.918;8.112;2022-07-24T06:07:40;7.93;;;7.22;;
69906;SDS011;57190;47.918;8.112;2022-07-24T06:10:06;6.97;;;6.57;;
69906;SDS011;57190;47.918;8.112;2022-07-24T06:12:32;6.65;;;6.25;;
69906;SDS011;57190;47.918;8.112;2022-07-24T06:14:58;8.45;;;7.75;;
69906;SDS011;57190;47.918;8.112;2022-07-24T06:17:23;7.93;;;7.32;;
69906;SDS011;57190;47.918;8.112;2022-07-24T06:19:49;7.88;;;7.28;;
69906;SDS011;57190;47.918;8.112;2022-07-24T06:22:14;7.05;;;6.55;;
69906;SDS011;57190;47.918;8.112;2022-07-24T06:24:40;7.05;;;6.55;;
69906;SDS011;57190;47.918;8.112;2022-07-24T06:27:05;6.85;;;6.35;;
69906;SDS011;57190;47.918;8.112;2022-07-24T06:29:31;7.15;;;6.65;;
69906;SDS011;57190;47.918;8.112;2022-07-24T06:31:57;6.82;;;6.35;;
69906;SDS011;57190;47.918;8.112;2022-07-24T06:34:22;7.07;;;6.47;;
69906;SDS011;57190;47.918;8.112;2022-07-24T06:36:51;6.72;;;6.32;;
69906;SDS011;57190;47.918;8.112;2022-07-24T06:39:17;6.25;;;5.85;;
69906;SDS011;57190;47.918;8.112;2022-07-24T06:41:43;6.00;;;5.60;;
69906;SDS011;57190;47.918;8.112;2022-07-24T06:44:09;5.93;;;5.53;;
69906;SDS011;57190;47.918;8.112;2022-07-24T06:46:34;6.25;;;5.85;;
69906;SDS011;57190;47.918;8.112;2022-07-24T06:49:00;6.30;;;5.80;;
69906;SDS011;57190;47.918;8.112;2022-07-24T06:51:26;6.35;;;5.80;;
69906;SDS011;57190;47.918;8.112;2022-07-24T06:53:51;5.82;;;5.43;;
69906;SDS011;57190;47.918;8.112;2022-07-24T06:56:17;5.28;;;4.97;;
69906;SDS011;57190;47.918;8.112;2022-07-24T06:58:43;6.38;;;5.78;;
69906;SDS011;57190;47.918;8.112;2022-07-24T07:01:08;6.25;;;5.70;;
69906;SDS011;57190;47.918;8.112;2022-07-24T07:03:34;6.28;;;5.88;;
69906;SDS011;57190;47.918;8.112;2022-07-24T07:06:00;6.70;;;6.10;;
69906;SDS011;57190;47.918;8.112;2022-07-24T07:08:25;6.57;;;5.57;;
69906;SDS011;57190;47.918;8.112;2022-07-24T07:10:51;5.35;;;4.95;;
69906;SDS011;57190;47.918;8.112;2022-07-24T07:13:16;6.07;;;5.57;;
69906;SDS011;57190;47.918;8.112;2022-07-24T07:15:42;5.60;;;5.20;;
69906;SDS011;57190;47.918;8.112;2022-07-24T07:18:07;5.85;;;5.45;;
69906;SDS011;57190;47.918;8.112;2022-07-24T07:20:33;5.45;;;4.97;;
69906;SDS011;57190;47.918;8.112;2022-07-24T07:22:59;5.82;;;5.32;;
69906;SDS011;57190;47.918;8.112;2022-07-24T07:25:25;5.75;;;5.28;;
69906;SDS011;57190;47.918;8.112;2022-07-24T07:27:50;6.13;;;5.72;;
69906;SDS011;57190;47.918;8.112;2022-07-24T07:30:16;5.40;;;5.00;;
69906;SDS011;57190;47.918;8.112;2022-07-24T07:32:41;5.03;;;4.68;;
69906;SDS011;57190;47.918;8.112;2022-07-24T07:35:07;5.85;;;5.45;;
69906;SDS011;57190;47.918;8.112;2022-07-24T07:37:34;6.53;;;6.03;;
69906;SDS011;57190;47.918;8.112;2022-07-24T07:39:59;5.63;;;5.20;;
69906;SDS011;57190;47.918;8.112;2022-07-24T07:42:25;6.00;;;5.60;;
69906;SDS011;57190;47.918;8.112;2022-07-24T07:44:50;6.15;;;5.65;;
69906;SDS011;57190;47.918;8.112;2022-07-24T07:47:16;5.25;;;4.95;;
69906;SDS011;57190;47.918;8.112;2022-07-24T07:49:41;6.32;;;5.75;;
69906;SDS011;57190;47.918;8.112;2022-07-24T07:52:07;6.45;;;6.00;;
69906;SDS011;57190;47.918;8.112;2022-07-24T07:54:33;6.05;;;5.65;;
69906;SDS011;57190;47.918;8.112;2022-07-24T07:56:58;7.28;;;6.78;;
69906;SDS011;57190;47.918;8.112;2022-07-24T07:59:24;6.72;;;6.22;;
69906;SDS011;57190;47.918;8.112;2022-07-24T08:01:49;6.70;;;6.10;;
69906;SDS011;57190;47.918;8.112;2022-07-24T08:04:15;6.55;;;6.05;;
69906;SDS011;57190;47.918;8.112;2022-07-24T08:06:41;5.70;;;5.30;;
69906;SDS011;57190;47.918;8.112;2022-07-24T08:09:06;6.43;;;5.93;;
69906;SDS011;57190;47.918;8.112;2022-07-24T08:11:32;6.05;;;5.65;;
69906;SDS011;57190;47.918;8.112;2022-07-24T08:13:58;6.35;;;5.90;;
69906;SDS011;57190;47.918;8.112;2022-07-24T08:16:24;5.82;;;5.43;;
69906;SDS011;57190;47.918;8.112;2022-07-24T08:18:50;5.95;;;5.55;;
69906;SDS011;57190;47.918;8.112;2022-07-24T08:21:15;5.78;;;5.28;;
69906;SDS011;57190;47.918;8.112;2022-07-24T08:23:43;6.22;;;5.72;;
69906;SDS011;57190;47.918;8.112;2022-07-24T08:26:10;5.63;;;5.32;;
69906;SDS011;57190;47.918;8.112;2022-07-24T08:28:36;5.65;;;5.15;;
69906;SDS011;57190;47.918;8.112;2022-07-24T08:31:02;5.93;;;5.32;;
69906;SDS011;57190;47.918;8.112;2022-07-24T08:33:28;5.82;;;5.32;;
69906;SDS011;57190;47.918;8.112;2022-07-24T08:35:53;5.55;;;5.15;;
69906;SDS011;57190;47.918;8.112;2022-07-24T08:38:19;5.80;;;5.40;;
69906;SDS011;57190;47.918;8.112;2022-07-24T08:40:45;5.97;;;5.57;;
69906;SDS011;57190;47.918;8.112;2022-07-24T08:43:11;5.97;;;5.47;;
69906;SDS011;57190;47.918;8.112;2022-07-24T08:45:40;5.32;;;4.93;;
69906;SDS011;57190;47.918;8.112;2022-07-24T08:48:08;6.00;;;5.60;;
69906;SDS011;57190;47.918;8.112;2022-07-24T08:50:36;5.45;;;5.05;;
69906;SDS011;57190;47.918;8.112;2022-07-24T08:53:05;6.00;;;5.68;;
69906;SDS011;57190;47.918;8.112;2022-07-24T08:55:31;5.68;;;5.28;;
69906;SDS011;57190;47.918;8.112;2022-07-24T08:57:58;6.00;;;5.50;;
69906;SDS011;57190;47.918;8.112;2022-07-24T09:00:25;5.78;;;5.38;;
69906;SDS011;57190;47.918;8.112;2022-07-24T09:02:52;5.97;;;5.60;;
69906;SDS011;57190;47.918;8.112;2022-07-24T09:05:18;6.00;;;5.60;;
69906;SDS011;57190;47.918;8.112;2022-07-24T09:07:44;5.80;;;5.40;;
69906;SDS011;57190;47.918;8.112;2022-07-24T09:10:13;5.70;;;5.40;;
69906;SDS011;57190;47.918;8.112;2022-07-24T09:12:44;5.63;;;5.22;;
69906;SDS011;57190;47.918;8.112;2022-07-24T09:15:21;5.78;;;5.38;;
69906;SDS011;57190;47.918;8.112;2022-07-24T09:17:49;6.13;;;5.63;;
69906;SDS011;57190;47.918;8.112;2022-07-24T09:20:20;5.78;;;5.38;;
69906;SDS011;57190;47.918;8.112;2022-07-24T09:22:51;5.93;;;5.53;;
69906;SDS011;57190;47.918;8.112;2022-07-24T09:25:18;5.63;;;5.32;;
69906;SDS011;57190;47.918;8.112;2022-07-24T09:27:49;5.75;;;5.35;;
69906;SDS011;57190;47.918;8.112;2022-07-24T09:30:32;5.75;;;5.35;;
69906;SDS011;57190;47.918;8.112;2022-07-24T09:32:59;5.22;;;4.93;;
69906;SDS011;57190;47.918;8.112;2022-07-24T09:35:36;5.97;;;5.57;;
69906;SDS011;57190;47.918;8.112;2022-07-24T09:38:09;6.20;;;5.80;;
69906;SDS011;57190;47.918;8.112;2022-07-24T09:40:37;5.68;;;5.28;;
69906;SDS011;57190;47.918;8.112;2022-07-24T09:48:37;5.55;;;5.25;;
69906;SDS011;57190;47.918;8.112;2022-07-24T09:51:16;5.10;;;4.80;;
69906;SDS011;57190;47.918;8.112;2022-07-24T09:53:45;5.22;;;4.93;;
69906;SDS011;57190;47.918;8.112;2022-07-24T09:56:13;5.63;;;5.28;;
69906;SDS011;57190;47.918;8.112;2022-07-24T09:58:47;5.88;;;5.25;;
69906;SDS011;57190;47.918;8.112;2022-07-24T10:01:16;5.85;;;5.53;;
69906;SDS011;57190;47.918;8.112;2022-07-24T10:03:43;5.85;;;5.43;;
69906;SDS011;57190;47.918;8.112;2022-07-24T10:06:11;5.07;;;4.72;;
69906;SDS011;57190;47.918;8.112;2022-07-24T10:08:39;5.88;;;5.38;;
69906;SDS011;57190;47.918;8.112;2022-07-24T10:11:07;5.95;;;5.50;;
69906;SDS011;57190;47.918;8.112;2022-07-24T10:13:33;5.82;;;5.43;;
69906;SDS011;57190;47.918;8.112;2022-07-24T10:27:05;5.45;;;5.05;;
69906;SDS011;57190;47.918;8.112;2022-07-24T10:29:46;6.20;;;5.70;;
69906;SDS011;57190;47.918;8.112;2022-07-24T10:32:13;6.07;;;5.68;;
69906;SDS011;57190;47.918;8.112;2022-07-24T10:45:36;5.53;;;5.13;;
69906;SDS011;57190;47.918;8.112;2022-07-24T10:53:26;6.15;;;5.75;;
69906;SDS011;57190;47.918;8.112;2022-07-24T10:55:56;6.05;;;5.65;;
69906;SDS011;57190;47.918;8.112;2022-07-24T11:06:48;5.88;;;5.47;;
69906;SDS011;57190;47.918;8.112;2022-07-24T11:09:16;6.35;;;5.75;;
69906;SDS011;57190;47.918;8.112;2022-07-24T11:14:17;5.68;;;5.22;;
69906;SDS011;57190;47.918;8.112;2022-07-24T11:16:47;6.05;;;5.65;;
69906;SDS011;57190;47.918;8.112;2022-07-24T11:21:42;6.22;;;5.75;;
69906;SDS011;57190;47.918;8.112;2022-07-24T11:27:25;5.25;;;4.95;;
69906;SDS011;57190;47.918;8.112;2022-07-24T11:29:32;4.80;;;4.50;;
69906;SDS011;57190;47.918;8.112;2022-07-24T11:32:01;5.07;;;4.78;;
69906;SDS011;57190;47.918;8.112;2022-07-24T11:34:30;5.80;;;5.40;;
69906;SDS011;57190;47.918;8.112;2022-07-24T11:36:58;5.20;;;4.80;;
69906;SDS011;57190;47.918;8.112;2022-07-24T11:39:34;5.63;;;5.15;;
69906;SDS011;57190;47.918;8.112;2022-07-24T11:42:05;6.10;;;5.70;;
69906;SDS011;57190;47.918;8.112;2022-07-24T11:47:05;5.93;;;5.43;;
69906;SDS011;57190;47.918;8.112;2022-07-24T11:49:35;5.35;;;4.97;;
69906;SDS011;57190;47.918;8.112;2022-07-24T11:52:05;6.25;;;5.63;;
69906;SDS011;57190;47.918;8.112;2022-07-24T11:54:30;6.28;;;5.88;;
69906;SDS011;57190;47.918;8.112;2022-07-24T11:56:56;5.68;;;5.35;;
69906;SDS011;57190;47.918;8.112;2022-07-24T11:59:26;6.25;;;5.85;;
69906;SDS011;57190;47.918;8.112;2022-07-24T12:02:11;5.65;;;5.35;;
69906;SDS011;57190;47.918;8.112;2022-07-24T12:04:38;5.97;;;5.57;;
69906;SDS011;57190;47.918;8.112;2022-07-24T12:07:06;5.40;;;5.10;;
69906;SDS011;57190;47.918;8.112;2022-07-24T12:09:42;5.63;;;5.32;;
69906;SDS011;57190;47.918;8.112;2022-07-24T12:12:19;6.13;;;5.75;;
69906;SDS011;57190;47.918;8.112;2022-07-24T12:17:31;6.35;;;5.85;;
69906;SDS011;57190;47.918;8.112;2022-07-24T12:20:00;5.20;;;4.90;;
69906;SDS011;57190;47.918;8.112;2022-07-24T12:22:27;5.32;;;5.03;;
69906;SDS011;57190;47.918;8.112;2022-07-24T12:24:54;5.07;;;4.78;;
69906;SDS011;57190;47.918;8.112;2022-07-24T12:27:32;5.00;;;4.70;;
69906;SDS011;57190;47.918;8.112;2022-07-24T12:29:58;5.32;;;4.95;;
69906;SDS011;57190;47.918;8.112;2022-07-24T12:32:24;5.30;;;5.00;;
69906;SDS011;57190;47.918;8.112;2022-07-24T12:34:51;5.70;;;5.30;;
69906;SDS011;57190;47.918;8.112;2022-07-24T12:37:18;5.70;;;5.40;;
69906;SDS011;57190;47.918;8.112;2022-07-24T12:39:49;5.88;;;5.47;;
69906;SDS011;57190;47.918;8.112;2022-07-24T12:42:16;5.88;;;5.47;;
69906;SDS011;57190;47.918;8.112;2022-07-24T12:44:43;5.40;;;5.10;;
69906;SDS011;57190;47.918;8.112;2022-07-24T12:47:10;5.60;;;5.20;;
69906;SDS011;57190;47.918;8.112;2022-07-24T12:49:40;5.93;;;5.53;;
69906;SDS011;57190;47.918;8.112;2022-07-24T12:52:21;5.53;;;5.13;;
69906;SDS011;57190;47.918;8.112;2022-07-24T12:54:49;5.55;;;5.15;;
69906;SDS011;57190;47.918;8.112;2022-07-24T12:57:15;5.90;;;5.40;;
69906;SDS011;57190;47.918;8.112;2022-07-24T12:59:42;5.63;;;5.22;;
69906;SDS011;57190;47.918;8.112;2022-07-24T13:02:10;6.47;;;5.97;;
69906;SDS011;57190;47.918;8.112;2022-07-24T13:04:41;5.47;;;5.07;;
69906;SDS011;57190;47.918;8.112;2022-07-24T13:07:17;6.60;;;6.03;;
69906;SDS011;57190;47.918;8.112;2022-07-24T13:09:47;6.15;;;5.75;;
69906;SDS011;57190;47.918;8.112;2022-07-24T13:12:13;5.53;;;5.22;;
69906;SDS011;57190;47.918;8.112;2022-07-24T13:14:39;6.07;;;5.68;;
69906;SDS011;57190;47.918;8.112;2022-07-24T13:17:07;5.85;;;5.45;;
69906;SDS011;57190;47.918;8.112;2022-07-24T13:19:38;6.18;;;5.80;;
69906;SDS011;57190;47.918;8.112;2022-07-24T13:22:05;5.88;;;5.50;;
69906;SDS011;57190;47.918;8.112;2022-07-24T13:24:31;5.60;;;5.30;;
69906;SDS011;57190;47.918;8.112;2022-07-24T13:27:01;5.78;;;5.47;;
69906;SDS011;57190;47.918;8.112;2022-07-24T13:29:27;5.20;;;4.90;;
69906;SDS011;57190;47.918;8.112;2022-07-24T13:31:53;5.72;;;5.43;;
69906;SDS011;57190;47.918;8.112;2022-07-24T13:34:19;6.03;;;5.63;;
69906;SDS011;57190;47.918;8.112;2022-07-24T13:36:45;5.18;;;4.88;;
69906;SDS011;57190;47.918;8.112;2022-07-24T13:39:11;5.75;;;5.35;;
69906;SDS011;57190;47.918;8.112;2022-07-24T13:41:38;6.00;;;5.50;;
69906;SDS011;57190;47.918;8.112;2022-07-24T13:44:04;5.57;;;5.15;;
69906;SDS011;57190;47.918;8.112;2022-07-24T13:46:30;5.88;;;5.47;;
69906;SDS011;57190;47.918;8.112;2022-07-24T13:48:57;6.25;;;5.85;;
69906;SDS011;57190;47.918;8.112;2022-07-24T13:51:24;5.68;;;5.18;;
69906;SDS011;57190;47.918;8.112;2022-07-24T13:53:50;5.15;;;4.85;;
69906;SDS011;57190;47.918;8.112;2022-07-24T13:56:16;5.50;;;5.18;;
69906;SDS011;57190;47.918;8.112;2022-07-24T13:58:41;5.40;;;5.07;;
69906;SDS011;57190;47.918;8.112;2022-07-24T14:01:08;5.88;;;5.47;;
69906;SDS011;57190;47.918;8.112;2022-07-24T14:03:34;5.13;;;4.82;;
69906;SDS011;57190;47.918;8.112;2022-07-24T14:06:02;5.13;;;4.82;;
69906;SDS011;57190;47.918;8.112;2022-07-24T14:08:28;5.95;;;5.45;;
69906;SDS011;57190;47.918;8.112;2022-07-24T14:10:54;5.07;;;4.78;;
69906;SDS011;57190;47.918;8.112;2022-07-24T14:13:20;5.18;;;4.88;;
69906;SDS011;57190;47.918;8.112;2022-07-24T14:15:45;5.60;;;5.28;;
69906;SDS011;57190;47.918;8.112;2022-07-24T14:18:11;5.25;;;4.93;;
69906;SDS011;57190;47.918;8.112;2022-07-24T14:20:37;5.30;;;5.00;;
69906;SDS011;57190;47.918;8.112;2022-07-24T14:23:02;5.60;;;5.30;;
69906;SDS011;57190;47.918;8.112;2022-07-24T14:25:28;6.03;;;5.63;;
69906;SDS011;57190;47.918;8.112;2022-07-24T14:27:53;5.35;;;5.05;;
69906;SDS011;57190;47.918;8.112;2022-07-24T14:30:19;5.55;;;5.22;;
69906;SDS011;57190;47.918;8.112;2022-07-24T14:32:45;5.72;;;5.43;;
69906;SDS011;57190;47.918;8.112;2022-07-24T14:35:10;5.40;;;5.10;;
69906;SDS011;57190;47.918;8.112;2022-07-24T14:37:36;6.07;;;5.68;;
69906;SDS011;57190;47.918;8.112;2022-07-24T14:40:03;5.70;;;5.40;;
69906;SDS011;57190;47.918;8.112;2022-07-24T14:42:32;5.93;;;5.43;;
69906;SDS011;57190;47.918;8.112;2022-07-24T14:44:58;5.55;;;5.15;;
69906;SDS011;57190;47.918;8.112;2022-07-24T14:47:24;5.82;;;5.47;;
69906;SDS011;57190;47.918;8.112;2022-07-24T14:49:49;5.53;;;5.07;;
69906;SDS011;57190;47.918;8.112;2022-07-24T14:52:15;5.93;;;5.63;;
69906;SDS011;57190;47.918;8.112;2022-07-24T14:54:43;5.20;;;4.90;;
69906;SDS011;57190;47.918;8.112;2022-07-24T14:57:12;5.53;;;5.22;;
69906;SDS011;57190;47.918;8.112;2022-07-24T14:59:38;5.80;;;5.45;;
69906;SDS011;57190;47.918;8.112;2022-07-24T15:02:04;6.15;;;5.75;;
69906;SDS011;57190;47.918;8.112;2022-07-24T15:04:30;5.43;;;5.13;;
69906;SDS011;57190;47.918;8.112;2022-07-24T15:06:55;5.75;;;5.45;;
69906;SDS011;57190;47.918;8.112;2022-07-24T15:09:21;5.45;;;5.15;;
69906;SDS011;57190;47.918;8.112;2022-07-24T15:11:47;6.18;;;5.78;;
69906;SDS011;57190;47.918;8.112;2022-07-24T15:14:12;5.30;;;5.00;;
69906;SDS011;57190;47.918;8.112;2022-07-24T15:16:38;5.60;;;5.20;;
69906;SDS011;57190;47.918;8.112;2022-07-24T15:19:04;6.10;;;5.70;;
69906;SDS011;57190;47.918;8.112;2022-07-24T15:21:29;5.85;;;5.50;;
69906;SDS011;57190;47.918;8.112;2022-07-24T15:23:55;5.38;;;5.07;;
69906;SDS011;57190;47.918;8.112;2022-07-24T15:26:20;6.03;;;5.63;;
69906;SDS011;57190;47.918;8.112;2022-07-24T15:28:46;5.68;;;5.38;;
69906;SDS011;57190;47.918;8.112;2022-07-24T15:31:12;6.30;;;5.78;;
69906;SDS011;57190;47.918;8.112;2022-07-24T15:33:42;5.70;;;5.40;;
69906;SDS011;57190;47.918;8.112;2022-07-24T15:36:08;5.30;;;5.00;;
69906;SDS011;57190;47.918;8.112;2022-07-24T15:38:35;5.20;;;4.80;;